createdAt,value
2023-03-11T00:00:00.236Z,7.70
2023-03-11T00:02:30.918Z,7.00
2023-03-11T00:05:01.629Z,10.30
2023-03-11T00:07:32.390Z,8.70
2023-03-11T00:10:03.020Z,9.40
2023-03-11T00:12:33.674Z,9.30
2023-03-11T00:15:04.684Z,14.20
2023-03-11T00:20:05.363Z,9.60
2023-03-11T00:22:36.097Z,13.00
2023-03-11T00:25:10.031Z,13.20
2023-03-11T00:27:40.898Z,10.60
2023-03-11T00:30:14.852Z,11.90
2023-03-11T00:32:47.076Z,11.70
2023-03-11T00:35:19.610Z,13.80
2023-03-11T00:37:53.619Z,14.20
2023-03-11T00:40:27.209Z,12.00
2023-03-11T00:42:58.162Z,11.70
2023-03-11T00:47:58.711Z,11.10
2023-03-11T00:53:00.671Z,12.20
2023-03-11T00:55:33.517Z,13.60
2023-03-11T00:58:07.037Z,11.20
2023-03-11T01:00:37.683Z,15.70
2023-03-11T01:03:08.749Z,12.00
2023-03-11T01:05:39.675Z,13.20
2023-03-11T01:08:10.302Z,12.80
2023-03-11T01:10:40.972Z,13.10
2023-03-11T01:13:11.613Z,12.30
2023-03-11T01:15:42.588Z,12.80
2023-03-11T01:20:42.381Z,11.30
2023-03-11T01:23:14.974Z,11.70
2023-03-11T01:25:45.702Z,11.30
2023-03-11T01:28:16.402Z,10.90
2023-03-11T01:30:47.065Z,10.80
2023-03-11T01:33:19.694Z,10.60
2023-03-11T01:35:50.430Z,8.80
2023-03-11T01:38:21.221Z,8.20
2023-03-11T01:40:53.006Z,6.90
2023-03-11T01:43:47.655Z,7.00
2023-03-11T01:46:21.644Z,8.30
2023-03-11T01:48:53.791Z,5.80
2023-03-11T01:51:28.455Z,5.50
2023-03-11T01:54:03.879Z,6.30
2023-03-11T01:56:35.575Z,5.00
2023-03-11T01:59:08.838Z,4.60
2023-03-11T02:01:43.934Z,5.00
2023-03-11T02:04:15.481Z,4.20
2023-03-11T02:06:46.339Z,3.40
2023-03-11T02:09:17.081Z,2.40
2023-03-11T02:11:47.788Z,3.00
2023-03-11T02:14:19.437Z,2.10
2023-03-11T02:16:50.142Z,1.50
2023-03-11T02:19:32.154Z,3.60
2023-03-11T02:22:03.246Z,2.00
2023-03-11T02:24:42.538Z,2.00
2023-03-11T02:27:16.531Z,1.40
2023-03-11T02:29:49.680Z,2.30
2023-03-11T02:32:21.294Z,2.30
2023-03-11T02:34:51.973Z,3.60
2023-03-11T02:37:22.641Z,2.90
2023-03-11T02:39:54.651Z,1.10
2023-03-11T02:42:28.822Z,3.10
2023-03-11T02:45:03.752Z,7.40
2023-03-11T02:47:37.647Z,9.20
2023-03-11T02:50:18.022Z,12.70
2023-03-11T02:52:49.877Z,13.90
2023-03-11T02:55:21.130Z,17.60
2023-03-11T03:00:23.192Z,13.40
2023-03-11T03:02:53.916Z,15.90
2023-03-11T03:05:24.780Z,12.00
2023-03-11T03:07:55.841Z,12.30
2023-03-11T03:10:31.973Z,10.80
2023-03-11T03:13:02.702Z,11.70
2023-03-11T03:15:33.498Z,12.80
2023-03-11T03:18:04.265Z,12.80
2023-03-11T03:20:35.539Z,12.10
2023-03-11T03:23:06.247Z,12.80
2023-03-11T03:25:36.925Z,10.50
2023-03-11T03:28:07.950Z,11.00
2023-03-11T03:33:08.281Z,7.00
2023-03-11T03:38:11.436Z,6.40
2023-03-11T03:40:47.864Z,8.40
2023-03-11T03:43:18.544Z,7.00
2023-03-11T03:45:56.956Z,7.10
2023-03-11T03:48:28.237Z,7.00
2023-03-11T03:51:05.096Z,6.30
2023-03-11T03:53:36.987Z,7.30
2023-03-11T03:56:10.866Z,5.60
2023-03-11T03:58:41.581Z,7.40
2023-03-11T04:01:12.885Z,5.60
2023-03-11T04:03:44.043Z,6.70
2023-03-11T04:06:19.440Z,6.10
2023-03-11T04:08:50.647Z,5.60
2023-03-11T04:11:21.784Z,6.60
2023-03-11T04:16:23.841Z,4.40
2023-03-11T04:18:54.604Z,4.40
2023-03-11T04:21:25.327Z,4.80
2023-03-11T04:23:55.948Z,4.60
2023-03-11T04:26:27.536Z,6.20
2023-03-11T04:28:58.209Z,4.70
2023-03-11T04:31:29.115Z,4.00
2023-03-11T04:33:59.752Z,3.60
2023-03-11T04:36:30.493Z,3.70
2023-03-11T04:39:01.123Z,4.00
2023-03-11T04:41:31.779Z,4.30
2023-03-11T04:44:02.389Z,3.30
2023-03-11T04:46:33.294Z,3.00
2023-03-11T04:49:03.958Z,5.50
2023-03-11T04:51:34.736Z,4.10
2023-03-11T04:54:05.740Z,3.00
2023-03-11T04:59:05.548Z,4.00
2023-03-11T05:01:36.304Z,4.20
2023-03-11T05:04:07.170Z,5.00
2023-03-11T05:06:37.837Z,5.20
2023-03-11T05:09:08.506Z,4.40
2023-03-11T05:11:39.193Z,5.10
2023-03-11T05:14:09.782Z,6.00
2023-03-11T05:16:40.444Z,5.10
2023-03-11T05:19:11.116Z,5.80
2023-03-11T05:21:41.825Z,5.20
2023-03-11T05:24:12.843Z,5.60
2023-03-11T05:26:43.681Z,5.10
2023-03-11T05:29:14.343Z,7.30
2023-03-11T05:31:45.016Z,5.50
2023-03-11T05:34:16.030Z,5.40
2023-03-11T05:36:46.809Z,6.50
2023-03-11T05:39:17.425Z,7.20
2023-03-11T05:41:48.711Z,7.50
2023-03-11T05:44:19.321Z,6.90
2023-03-11T05:46:50.176Z,9.10
2023-03-11T05:49:20.889Z,8.30
2023-03-11T05:51:52.525Z,9.20
2023-03-11T05:54:23.160Z,8.90
2023-03-11T05:56:53.823Z,9.00
2023-03-11T05:59:24.936Z,8.40
2023-03-11T06:01:55.684Z,11.80
2023-03-11T06:04:26.526Z,9.10
2023-03-11T06:06:57.287Z,9.90
2023-03-11T06:09:28.524Z,10.80
2023-03-11T06:11:59.321Z,11.70
2023-03-11T06:14:30.047Z,10.70
2023-03-11T06:17:00.904Z,10.30
2023-03-11T06:19:31.572Z,10.00
2023-03-11T06:22:03.012Z,12.90
2023-03-11T06:24:33.690Z,9.10
2023-03-11T06:27:04.662Z,8.70
2023-03-11T06:29:35.341Z,9.30
2023-03-11T06:32:06.685Z,10.50
2023-03-11T06:34:37.314Z,9.30
2023-03-11T06:37:08.008Z,7.80
2023-03-11T06:39:38.649Z,8.80
2023-03-11T06:42:12.887Z,8.80
2023-03-11T06:44:43.537Z,8.00
2023-03-11T06:47:14.264Z,7.80
2023-03-11T06:49:44.943Z,11.50
2023-03-11T06:52:15.708Z,6.70
2023-03-11T06:54:46.762Z,8.00
2023-03-11T06:59:46.828Z,7.10
2023-03-11T07:02:17.699Z,8.00
2023-03-11T07:04:50.781Z,6.40
2023-03-11T07:07:21.762Z,5.40
2023-03-11T07:12:25.440Z,6.30
2023-03-11T07:14:58.815Z,6.90
2023-03-11T07:17:29.636Z,5.10
2023-03-11T07:20:00.621Z,4.90
2023-03-11T07:25:00.808Z,5.40
2023-03-11T07:27:32.006Z,5.50
2023-03-11T07:30:04.331Z,5.60
2023-03-11T07:32:35.046Z,7.50
2023-03-11T07:35:08.661Z,6.00
2023-03-11T07:37:39.455Z,6.50
2023-03-11T07:40:13.162Z,6.70
2023-03-11T07:42:43.830Z,5.80
2023-03-11T07:45:15.325Z,5.50
2023-03-11T07:47:46.263Z,7.00
2023-03-11T07:50:19.545Z,5.90
2023-03-11T07:52:50.319Z,7.60
2023-03-11T07:55:21.565Z,5.70
2023-03-11T07:57:52.389Z,6.50
2023-03-11T08:00:23.607Z,7.50
2023-03-11T08:02:54.275Z,6.40
2023-03-11T08:05:25.234Z,6.90
2023-03-11T08:07:56.029Z,8.30
2023-03-11T08:10:26.911Z,7.30
2023-03-11T08:12:57.690Z,8.70
2023-03-11T08:15:28.334Z,7.70
2023-03-11T08:17:59.268Z,7.00
2023-03-11T08:20:30.014Z,8.20
2023-03-11T08:23:00.853Z,7.00
2023-03-11T08:25:31.822Z,6.10
2023-03-11T08:30:33.386Z,6.10
2023-03-11T08:33:08.041Z,6.50
2023-03-11T08:35:39.006Z,7.20
2023-03-11T08:38:10.169Z,8.00
2023-03-11T08:40:41.117Z,6.20
2023-03-11T08:43:14.593Z,5.70
2023-03-11T08:45:45.658Z,6.60
2023-03-11T08:48:16.342Z,6.60
2023-03-11T08:50:53.955Z,6.50
2023-03-11T08:53:25.784Z,6.50
2023-03-11T08:55:56.658Z,5.90
2023-03-11T08:58:27.492Z,6.40
2023-03-11T09:00:58.180Z,5.20
2023-03-11T09:03:30.715Z,4.40
2023-03-11T09:06:03.154Z,6.30
2023-03-11T09:08:34.730Z,6.90
2023-03-11T09:13:35.370Z,7.10
2023-03-11T09:16:07.464Z,8.60
2023-03-11T09:18:38.191Z,7.10
2023-03-11T09:21:09.678Z,6.60
2023-03-11T09:23:42.884Z,9.20
2023-03-11T09:26:15.150Z,8.50
2023-03-11T09:31:15.268Z,7.20
2023-03-11T09:33:46.851Z,7.20
2023-03-11T09:36:19.322Z,6.00
2023-03-11T09:38:50.501Z,7.20
2023-03-11T09:41:33.903Z,10.30
2023-03-11T09:44:16.149Z,8.20
2023-03-11T09:47:34.422Z,8.10
2023-03-11T09:50:33.705Z,6.50
2023-03-11T09:53:17.888Z,7.10
2023-03-11T09:55:52.264Z,7.50
2023-03-11T09:58:31.828Z,10.00
2023-03-11T10:01:03.409Z,13.00
2023-03-11T10:03:39.356Z,8.90
2023-03-11T10:06:22.081Z,7.70
2023-03-11T10:09:02.835Z,7.60
2023-03-11T10:11:53.306Z,9.40
2023-03-11T10:14:37.744Z,8.40
2023-03-11T10:17:19.613Z,7.50
2023-03-11T10:19:59.609Z,10.50
2023-03-11T10:22:40.436Z,9.80
2023-03-11T10:25:16.667Z,9.50
2023-03-11T10:27:51.984Z,8.10
2023-03-11T10:30:29.610Z,8.80
2023-03-11T10:33:06.397Z,7.40
2023-03-11T10:35:40.884Z,6.40
2023-03-11T10:38:19.032Z,7.20
2023-03-11T10:40:53.726Z,7.30
2023-03-11T10:43:29.126Z,6.40
2023-03-11T10:46:00.286Z,6.80
2023-03-11T10:48:30.996Z,5.40
2023-03-11T10:51:11.118Z,5.80
2023-03-11T10:53:49.777Z,6.00
2023-03-11T10:56:32.715Z,5.00
2023-03-11T10:59:05.874Z,5.10
2023-03-11T11:01:36.590Z,4.20
2023-03-11T11:04:28.198Z,4.20
2023-03-11T11:07:19.091Z,4.20
2023-03-11T11:10:13.619Z,4.40
2023-03-11T11:12:54.776Z,4.30
2023-03-11T11:15:28.762Z,3.60
2023-03-11T11:18:02.238Z,4.80
2023-03-11T11:20:34.029Z,4.30
2023-03-11T11:23:05.671Z,3.70
2023-03-11T11:25:38.173Z,5.90
2023-03-11T11:28:18.261Z,4.10
2023-03-11T11:30:57.176Z,5.50
2023-03-11T11:33:30.976Z,4.20
2023-03-11T11:36:04.819Z,5.80
2023-03-11T11:38:35.985Z,4.70
2023-03-11T11:43:46.389Z,6.00
2023-03-11T11:46:22.603Z,6.50
2023-03-11T11:49:02.683Z,7.30
2023-03-11T11:51:36.566Z,14.10
2023-03-11T11:54:16.692Z,9.80
2023-03-11T11:56:47.604Z,8.20
2023-03-11T11:59:20.961Z,8.30
2023-03-11T12:02:04.395Z,9.50
2023-03-11T12:04:46.738Z,6.90
2023-03-11T12:07:39.349Z,7.50
2023-03-11T12:10:24.153Z,7.90
2023-03-11T12:13:18.266Z,7.60
2023-03-11T12:15:53.834Z,9.60
2023-03-11T12:18:31.455Z,7.20
2023-03-11T12:21:09.961Z,7.80
2023-03-11T12:23:55.038Z,6.70
2023-03-11T12:26:28.091Z,7.60
2023-03-11T12:29:02.995Z,8.10
2023-03-11T12:31:38.223Z,6.90
2023-03-11T12:34:13.477Z,8.40
2023-03-11T12:36:46.288Z,8.20
2023-03-11T12:39:24.605Z,7.10
2023-03-11T12:42:21.599Z,6.20
2023-03-11T12:44:52.612Z,7.40
2023-03-11T12:49:55.607Z,5.80
2023-03-11T12:52:28.463Z,6.20
2023-03-11T12:55:34.831Z,4.90
2023-03-11T12:58:32.286Z,5.00
2023-03-11T13:01:26.190Z,6.00
2023-03-11T13:04:04.737Z,7.10
2023-03-11T13:06:58.558Z,8.60
2023-03-11T13:09:31.435Z,7.40
2023-03-11T13:12:02.423Z,10.80
2023-03-11T13:14:34.039Z,5.00
2023-03-11T13:17:26.803Z,5.00
2023-03-11T13:19:59.370Z,8.00
2023-03-11T13:23:13.591Z,7.60
2023-03-11T13:26:02.608Z,7.10
2023-03-11T13:28:52.734Z,7.00
2023-03-11T13:31:37.112Z,5.50
2023-03-11T13:34:16.170Z,6.40
2023-03-11T13:37:05.119Z,9.10
2023-03-11T13:39:53.272Z,6.20
2023-03-11T13:42:30.182Z,7.80
2023-03-11T13:45:02.025Z,6.20
2023-03-11T13:47:35.472Z,6.20
2023-03-11T13:50:17.568Z,5.60
2023-03-11T13:52:52.452Z,6.10
2023-03-11T13:55:28.415Z,6.20
2023-03-11T13:57:59.308Z,6.20
2023-03-11T14:00:38.400Z,7.50
2023-03-11T14:03:14.841Z,5.20
2023-03-11T14:05:48.060Z,6.20
2023-03-11T14:08:23.939Z,5.80
2023-03-11T14:10:56.603Z,8.00
2023-03-11T14:13:28.661Z,5.90
2023-03-11T14:16:07.885Z,8.50
2023-03-11T14:18:41.114Z,6.10
2023-03-11T14:21:16.491Z,6.50
2023-03-11T14:23:49.782Z,6.30
2023-03-11T14:26:23.089Z,8.30
2023-03-11T14:28:55.081Z,14.90
2023-03-11T14:31:31.890Z,15.70
2023-03-11T14:34:04.098Z,13.40
2023-03-11T14:36:43.704Z,9.90
2023-03-11T14:39:29.399Z,8.90
2023-03-11T14:42:06.808Z,7.30
2023-03-11T14:44:42.040Z,8.10
2023-03-11T14:47:18.834Z,5.70
2023-03-11T14:49:51.810Z,7.30
2023-03-11T14:52:31.231Z,8.80
2023-03-11T14:55:05.646Z,7.10
2023-03-11T14:57:40.404Z,17.20
2023-03-11T15:00:18.037Z,15.10
2023-03-11T15:02:59.743Z,11.80
2023-03-11T15:05:39.437Z,8.90
2023-03-11T15:08:11.126Z,8.70
2023-03-11T15:11:02.964Z,5.70
2023-03-11T15:13:34.383Z,7.70
2023-03-11T15:18:38.270Z,7.60
2023-03-11T15:21:15.772Z,5.60
2023-03-11T15:23:51.388Z,6.60
2023-03-11T15:26:25.462Z,7.40
2023-03-11T15:28:58.772Z,7.50
2023-03-11T15:31:34.795Z,7.30
2023-03-11T15:34:25.544Z,7.10
2023-03-11T15:37:04.873Z,7.60
2023-03-11T15:39:47.156Z,6.20
2023-03-11T15:42:20.682Z,6.00
2023-03-11T15:45:03.035Z,5.50
2023-03-11T15:47:33.661Z,6.20
2023-03-11T15:50:43.053Z,4.90
2023-03-11T15:53:21.472Z,7.30
2023-03-11T15:55:53.087Z,6.60
2023-03-11T15:58:23.895Z,11.00
2023-03-11T16:01:00.066Z,6.50
2023-03-11T16:03:31.549Z,7.00
2023-03-11T16:06:02.434Z,7.30
2023-03-11T16:08:33.168Z,4.50
2023-03-11T16:11:04.157Z,7.00
2023-03-11T16:13:34.793Z,6.00
2023-03-11T16:16:06.230Z,7.30
2023-03-11T16:18:36.980Z,6.50
2023-03-11T16:21:13.612Z,5.50
2023-03-11T16:23:51.547Z,6.10
2023-03-11T16:26:23.807Z,5.20
2023-03-11T16:28:54.537Z,5.20
2023-03-11T16:31:25.240Z,7.20
2023-03-11T16:33:55.880Z,4.90
2023-03-11T16:36:26.716Z,5.40
2023-03-11T16:38:57.373Z,5.20
2023-03-11T16:41:28.193Z,7.90
2023-03-11T16:43:58.752Z,6.40
2023-03-11T16:46:29.453Z,9.20
2023-03-11T16:49:00.173Z,6.70
2023-03-11T16:51:30.886Z,8.00
2023-03-11T16:54:01.707Z,7.60
2023-03-11T16:56:32.420Z,6.80
2023-03-11T16:59:03.085Z,6.10
2023-03-11T17:01:33.839Z,6.20
2023-03-11T17:04:04.840Z,8.90
2023-03-11T17:06:35.525Z,10.10
2023-03-11T17:09:06.152Z,8.20
2023-03-11T17:11:37.228Z,10.10
2023-03-11T17:16:47.271Z,6.50
2023-03-11T17:19:17.833Z,7.50
2023-03-11T17:21:48.528Z,6.80
2023-03-11T17:24:19.381Z,9.80
2023-03-11T17:26:50.113Z,7.30
2023-03-11T17:29:20.755Z,7.00
2023-03-11T17:31:51.607Z,8.30
2023-03-11T17:36:52.135Z,6.90
2023-03-11T17:39:22.819Z,6.60
2023-03-11T17:41:53.545Z,9.90
2023-03-11T17:44:24.335Z,11.60
2023-03-11T17:46:55.128Z,9.80
2023-03-11T17:49:26.235Z,9.90
2023-03-11T17:54:26.008Z,10.60
2023-03-11T17:56:57.299Z,14.00
2023-03-11T17:59:27.978Z,10.20
2023-03-11T18:02:00.460Z,10.00
2023-03-11T18:04:31.304Z,10.50
2023-03-11T18:07:02.014Z,11.80
2023-03-11T18:09:32.841Z,15.50
2023-03-11T18:12:04.345Z,12.20
2023-03-11T18:14:35.808Z,13.60
2023-03-11T18:17:06.692Z,12.40
2023-03-11T18:19:37.773Z,15.00
2023-03-11T18:22:08.516Z,14.20
2023-03-11T18:24:39.183Z,11.30
2023-03-11T18:27:10.019Z,11.90
2023-03-11T18:29:41.014Z,14.40
2023-03-11T18:32:11.944Z,19.70
2023-03-11T18:34:42.602Z,15.40
2023-03-11T18:37:13.222Z,12.60
2023-03-11T18:39:43.808Z,14.10
2023-03-11T18:42:14.740Z,15.10
2023-03-11T18:44:45.450Z,11.70
2023-03-11T18:47:16.418Z,15.90
2023-03-11T18:49:47.355Z,13.60
2023-03-11T18:52:18.020Z,15.50
2023-03-11T18:54:48.676Z,20.40
2023-03-11T18:57:19.435Z,27.60
2023-03-11T19:02:19.642Z,26.50
2023-03-11T19:04:50.479Z,17.10
2023-03-11T19:07:21.325Z,18.00
2023-03-11T19:09:51.970Z,22.10
2023-03-11T19:12:22.661Z,22.10
2023-03-11T19:14:53.340Z,22.20
2023-03-11T19:17:24.889Z,19.80
2023-03-11T19:19:56.209Z,19.10
2023-03-11T19:22:27.042Z,17.10
2023-03-11T19:24:57.676Z,15.60
2023-03-11T19:27:28.324Z,18.80
2023-03-11T19:29:59.474Z,14.70
2023-03-11T19:32:30.183Z,21.20
2023-03-11T19:35:00.793Z,15.90
2023-03-11T19:37:33.039Z,16.40
2023-03-11T19:40:03.986Z,15.20
2023-03-11T19:42:36.398Z,14.20
2023-03-11T19:45:09.813Z,13.30
2023-03-11T19:47:40.856Z,15.40
2023-03-11T19:50:12.656Z,11.70
2023-03-11T19:52:43.350Z,14.60
2023-03-11T19:55:14.509Z,12.20
2023-03-11T19:57:45.303Z,12.90
2023-03-11T20:00:16.802Z,15.10
2023-03-11T20:02:47.549Z,14.30
2023-03-11T20:05:18.356Z,16.40
2023-03-11T20:07:49.176Z,13.20
2023-03-11T20:10:20.524Z,13.00
2023-03-11T20:13:01.706Z,14.40
2023-03-11T20:15:33.706Z,14.60
2023-03-11T20:20:37.164Z,14.40
2023-03-11T20:23:07.958Z,13.80
2023-03-11T20:25:41.084Z,13.90
2023-03-11T20:28:11.970Z,15.20
2023-03-11T20:30:42.676Z,14.90
2023-03-11T20:33:13.392Z,13.10
2023-03-11T20:35:44.084Z,14.90
2023-03-11T20:38:14.948Z,13.70
2023-03-11T20:40:55.144Z,14.90
2023-03-11T20:43:25.963Z,10.70
2023-03-11T20:45:57.555Z,14.30
2023-03-11T20:48:28.819Z,14.90
2023-03-11T20:51:02.162Z,15.90
2023-03-11T20:53:33.358Z,15.60
2023-03-11T20:56:09.609Z,13.50
2023-03-11T20:58:40.820Z,13.90
2023-03-11T21:01:16.774Z,11.40
2023-03-11T21:03:50.085Z,13.00
2023-03-11T21:06:23.220Z,14.40
2023-03-11T21:08:54.971Z,14.30
2023-03-11T21:11:26.631Z,15.70
2023-03-11T21:13:57.326Z,13.30
2023-03-11T21:16:28.548Z,16.00
2023-03-11T21:18:59.330Z,17.00
2023-03-11T21:21:30.058Z,17.70
2023-03-11T21:24:00.896Z,13.60
2023-03-11T21:26:31.737Z,15.30
2023-03-11T21:29:02.925Z,13.80
2023-03-11T21:31:34.404Z,16.10
2023-03-11T21:34:05.200Z,13.50
2023-03-11T21:36:36.090Z,11.70
2023-03-11T21:39:07.071Z,13.20
2023-03-11T21:41:37.744Z,10.50
2023-03-11T21:44:08.642Z,15.70
2023-03-11T21:46:39.665Z,10.40
2023-03-11T21:49:10.443Z,8.90
2023-03-11T21:51:41.198Z,9.60
2023-03-11T21:54:11.872Z,9.80
2023-03-11T21:56:42.727Z,10.60
2023-03-11T21:59:13.422Z,11.60
2023-03-11T22:01:44.175Z,10.90
2023-03-11T22:04:15.160Z,12.40
2023-03-11T22:06:45.891Z,12.60
2023-03-11T22:09:16.685Z,11.20
2023-03-11T22:11:48.617Z,11.20
2023-03-11T22:14:19.395Z,8.40
2023-03-11T22:16:50.504Z,10.40
2023-03-11T22:21:50.623Z,9.30
2023-03-11T22:24:21.498Z,8.50
2023-03-11T22:26:52.180Z,9.60
2023-03-11T22:29:22.879Z,13.40
2023-03-11T22:31:53.700Z,9.90
2023-03-11T22:34:24.402Z,9.00
2023-03-11T22:36:55.007Z,9.30
2023-03-11T22:39:25.721Z,10.20
2023-03-11T22:41:56.368Z,9.00
2023-03-11T22:44:27.209Z,10.60
2023-03-11T22:46:57.883Z,10.20
2023-03-11T22:49:28.653Z,10.30
2023-03-11T22:51:59.418Z,11.80
2023-03-11T22:54:30.161Z,15.00
2023-03-11T22:57:00.773Z,16.20
2023-03-11T22:59:31.484Z,10.00
2023-03-11T23:02:02.214Z,11.30
2023-03-11T23:04:32.892Z,13.70
2023-03-11T23:07:03.503Z,14.90
2023-03-11T23:09:34.236Z,12.20
2023-03-11T23:12:07.666Z,10.80
2023-03-11T23:14:45.029Z,8.80
2023-03-11T23:17:15.942Z,10.10
2023-03-11T23:19:46.621Z,10.40
2023-03-11T23:22:17.244Z,8.50
2023-03-11T23:24:48.014Z,8.50
2023-03-11T23:27:18.650Z,10.80
2023-03-11T23:29:49.325Z,12.00
2023-03-11T23:32:20.019Z,10.00
2023-03-11T23:34:50.730Z,11.20
2023-03-11T23:37:21.435Z,10.50
2023-03-11T23:39:52.240Z,8.10
2023-03-11T23:42:26.239Z,10.30
2023-03-11T23:44:57.552Z,11.90
2023-03-11T23:49:57.545Z,9.40
2023-03-11T23:52:28.193Z,9.10
2023-03-11T23:54:58.826Z,7.50
2023-03-11T23:57:29.480Z,9.00
